Time;durP1;ratioP1;P1;durP2;ratioP2;P2;SDS_P1;SDS_P2;PMS_P1;PMS_P2;Temp;Humidity;BMP_temperature;BMP_pressure;BME280_temperature;BME280_humidity;BME280_pressure;Samples;Min_cycle;Max_cycle;Signal;HPM_P1;HPM_P2
2023/02/20 00:02:17;;;;;;;;;;;;;;;28.23;67.59;101089.56;5076526;27;65576;-38
2023/02/20 00:04:47;;;;;;;;;;;;;;;28.31;67.53;101102.88;5067898;27;69318;-39
2023/02/20 00:07:18;;;;;;;;;;;;;;;28.35;68.49;101103.31;5071829;27;65601;-38
2023/02/20 00:09:48;;;;;;;;;;;;;;;28.39;68.52;101100.03;5068114;27;68645;-38
2023/02/20 00:12:18;;;;;;;;;;;;;;;28.32;70.16;101106.41;5070372;27;66965;-37
2023/02/20 00:14:48;;;;;;;;;;;;;;;28.35;69.67;101108.72;5070692;27;70264;-39
2023/02/20 00:17:18;;;;;;;;;;;;;;;28.38;69.57;101111.00;5078912;27;66275;-40
2023/02/20 00:19:48;;;;;;;;;;;;;;;28.41;69.20;101113.31;5076709;27;70382;-40
2023/02/20 00:22:21;;;;;;;;;;;;;;;28.45;69.35;101114.63;5078136;28;65353;-40
2023/02/20 00:24:51;;;;;;;;;;;;;;;28.45;69.09;101118.16;5070668;28;70637;-39
2023/02/20 00:27:21;;;;;;;;;;;;;;;28.47;68.86;101118.81;5067895;28;65455;-39
2023/02/20 00:29:51;;;;;;;;;;;;;;;28.48;69.33;101128.56;5073643;27;68221;-40
2023/02/20 00:32:21;;;;;;;;;;;;;;;28.49;69.98;101127.50;5072332;27;66503;-40
2023/02/20 00:34:52;;;;;;;;;;;;;;;28.50;70.01;101131.91;5090994;27;70252;-39
2023/02/20 00:37:22;;;;;;;;;;;;;;;28.52;70.34;101132.50;5074439;28;66616;-40
2023/02/20 00:39:52;;;;;;;;;;;;;;;28.57;70.21;101133.78;5073222;28;71516;-41
2023/02/20 00:42:22;;;;;;;;;;;;;;;28.56;70.33;101138.38;5068298;27;66086;-39
2023/02/20 00:44:52;;;;;;;;;;;;;;;28.51;68.49;101141.66;5072034;27;69227;-39
2023/02/20 00:47:24;;;;;;;;;;;;;;;28.51;67.22;101141.66;5073315;28;66399;-39
2023/02/20 00:49:55;;;;;;;;;;;;;;;28.52;66.70;101148.69;5075829;27;70038;-39
2023/02/20 00:52:25;;;;;;;;;;;;;;;28.54;66.57;101139.59;5070569;27;65636;-39
2023/02/20 00:54:55;;;;;;;;;;;;;;;28.57;66.17;101148.13;5089006;27;69388;-39
2023/02/20 00:57:25;;;;;;;;;;;;;;;28.58;65.51;101154.34;5061777;27;65932;-39
2023/02/20 00:59:55;;;;;;;;;;;;;;;28.58;65.39;101157.88;5075434;27;70589;-39
2023/02/20 01:02:26;;;;;;;;;;;;;;;28.60;65.13;101165.78;5093921;27;66649;-39
2023/02/20 01:04:58;;;;;;;;;;;;;;;28.62;64.85;101163.72;5082799;27;70470;-39
2023/02/20 01:07:29;;;;;;;;;;;;;;;28.63;65.05;101170.78;5087814;27;66090;-39
2023/02/20 01:09:59;;;;;;;;;;;;;;;28.63;64.90;101168.09;5089111;27;69545;-39
2023/02/20 01:12:30;;;;;;;;;;;;;;;28.64;64.86;101167.03;5098078;27;67055;-39
2023/02/20 01:15:00;;;;;;;;;;;;;;;28.66;64.28;101170.38;5096718;27;70309;-40
2023/02/20 01:17:31;;;;;;;;;;;;;;;28.65;64.18;101174.94;5087344;27;66807;-41
2023/02/20 01:20:01;;;;;;;;;;;;;;;28.66;64.00;101173.06;5090443;27;69812;-39
2023/02/20 01:25:54;;;;;;;;;;;;;;;28.67;63.83;101175.59;5039120;27;69865;-39
2023/02/20 01:28:24;;;;;;;;;;;;;;;28.69;63.85;101175.38;5090301;27;66884;-39
2023/02/20 01:30:54;;;;;;;;;;;;;;;28.69;63.64;101172.69;5090854;27;69242;-39
2023/02/20 01:33:24;;;;;;;;;;;;;;;28.69;63.56;101181.59;5091483;27;66583;-39
2023/02/20 01:35:54;;;;;;;;;;;;;;;28.70;63.78;101182.47;5091323;27;70586;-39
2023/02/20 01:38:24;;;;;;;;;;;;;;;28.72;63.46;101177.69;5072763;27;66609;-40
2023/02/20 01:40:55;;;;;;;;;;;;;;;28.72;63.50;101180.38;5089065;27;69863;-39
2023/02/20 01:43:25;;;;;;;;;;;;;;;28.73;64.00;101182.88;5079952;27;65308;-38
2023/02/20 01:46:15;;;;;;;;;;;;;;;28.74;63.55;101183.72;5096408;27;69420;-40
2023/02/20 01:48:46;;;;;;;;;;;;;;;28.76;63.31;101181.66;5094780;27;66004;-39
2023/02/20 01:51:16;;;;;;;;;;;;;;;28.77;63.52;101182.50;5084161;27;70636;-40
2023/02/20 01:53:46;;;;;;;;;;;;;;;28.78;63.82;101184.16;5083537;27;65953;-38
2023/02/20 01:56:16;;;;;;;;;;;;;;;28.79;63.13;101188.53;5090997;27;69682;-39
2023/02/20 01:58:48;;;;;;;;;;;;;;;28.80;63.54;101188.31;5095797;27;67389;-39
2023/02/20 02:01:19;;;;;;;;;;;;;;;28.81;63.22;101178.38;5081737;27;69717;-39
2023/02/20 02:03:52;;;;;;;;;;;;;;;28.83;63.53;101187.91;5094555;27;66696;-40
2023/02/20 02:06:24;;;;;;;;;;;;;;;28.85;63.11;101191.25;5101056;27;70456;-39
2023/02/20 02:08:57;;;;;;;;;;;;;;;28.85;63.39;101196.66;5089139;27;65583;-39
2023/02/20 02:11:27;;;;;;;;;;;;;;;28.87;63.38;101200.00;5077851;27;69111;-39
2023/02/20 02:13:57;;;;;;;;;;;;;;;28.88;63.04;101196.25;5081019;27;66017;-39
2023/02/20 02:16:31;;;;;;;;;;;;;;;28.89;62.76;101208.75;5099632;27;70531;-40
2023/02/20 02:19:21;;;;;;;;;;;;;;;28.90;62.70;101204.19;5078775;27;66599;-40
2023/02/20 02:22:10;;;;;;;;;;;;;;;28.90;63.15;101213.09;5098220;27;70697;-39
2023/02/20 02:24:58;;;;;;;;;;;;;;;28.92;62.66;101212.91;5079458;27;66701;-38
2023/02/20 02:27:31;;;;;;;;;;;;;;;28.93;62.55;101214.56;5096768;27;69835;-40
2023/02/20 02:30:16;;;;;;;;;;;;;;;28.94;62.63;101214.34;5074884;27;66044;-39
2023/02/20 02:32:56;;;;;;;;;;;;;;;28.96;62.96;101214.16;5091727;27;69698;-40
2023/02/20 02:35:27;;;;;;;;;;;;;;;28.96;62.48;101215.00;5091869;27;65898;-39
2023/02/20 02:38:12;;;;;;;;;;;;;;;28.98;62.73;101222.09;5094117;27;70598;-39
2023/02/20 02:40:53;;;;;;;;;;;;;;;29.00;62.27;101220.00;5096296;27;65477;-38
2023/02/20 02:43:23;;;;;;;;;;;;;;;29.02;62.63;101216.06;5098863;27;69676;-38
2023/02/20 02:45:54;;;;;;;;;;;;;;;29.03;62.57;101220.50;5101305;27;66727;-39
2023/02/20 02:48:25;;;;;;;;;;;;;;;29.05;62.09;101220.28;5097511;27;70190;-41
2023/02/20 02:50:58;;;;;;;;;;;;;;;29.06;62.36;101216.53;5100566;27;65677;-39
2023/02/20 02:53:29;;;;;;;;;;;;;;;29.08;61.88;101211.75;5068167;27;69017;-41
2023/02/20 02:56:20;;;;;;;;;;;;;;;29.10;62.25;101210.53;5087720;27;65743;-40
2023/02/20 02:58:50;;;;;;;;;;;;;;;29.12;61.69;101213.06;5090426;27;69758;-39
2023/02/20 03:01:20;;;;;;;;;;;;;;;29.13;62.18;101209.31;5085966;27;65879;-39
2023/02/20 03:03:52;;;;;;;;;;;;;;;29.15;62.17;101212.66;5094937;27;69358;-40
2023/02/20 03:06:29;;;;;;;;;;;;;;;29.17;61.69;101214.13;5096997;27;65302;-41
2023/02/20 03:09:05;;;;;;;;;;;;;;;29.20;61.53;101214.72;5078715;27;69355;-39
2023/02/20 03:11:37;;;;;;;;;;;;;;;29.21;61.92;101209.13;5092787;27;65449;-40
2023/02/20 03:17:06;;;;;;;;;;;;;;;29.27;61.21;101199.38;5085004;27;66024;-39
2023/02/20 03:19:41;;;;;;;;;;;;;;;29.28;61.70;101201.91;5065216;27;70322;-40
2023/02/20 03:22:31;;;;;;;;;;;;;;;29.30;61.55;101199.81;5075560;27;66883;-39
2023/02/20 03:25:05;;;;;;;;;;;;;;;29.32;61.23;101197.75;5090380;27;71396;-39
2023/02/20 03:27:37;;;;;;;;;;;;;;;29.34;61.04;101195.69;5074449;27;66810;-39
2023/02/20 03:30:21;;;;;;;;;;;;;;;29.37;60.96;101195.28;5072777;27;70533;-39
2023/02/20 03:44:16;;;;;;;;;;;;;;;29.51;60.53;101181.81;5088205;27;66321;-37
2023/02/20 03:46:49;;;;;;;;;;;;;;;29.53;60.85;101172.47;5071910;27;70064;-39
2023/02/20 03:49:20;;;;;;;;;;;;;;;29.55;60.74;101180.34;5077611;27;66024;-39
2023/02/20 03:51:58;;;;;;;;;;;;;;;29.58;60.51;101171.81;5078531;27;70047;-39
2023/02/20 03:54:46;;;;;;;;;;;;;;;29.61;60.65;101160.59;5097630;27;66814;-41
2023/02/20 03:57:26;;;;;;;;;;;;;;;29.23;60.60;101090.06;5079602;27;70156;-40
2023/02/20 03:59:58;;;;;;;;;;;;;;;29.66;59.82;101154.63;5071224;27;66261;-40
2023/02/20 04:02:33;;;;;;;;;;;;;;;29.68;60.12;101150.69;5080184;27;70848;-42
2023/02/20 04:05:07;;;;;;;;;;;;;;;29.70;59.83;101151.31;5098327;27;65423;-39
2023/02/20 04:07:57;;;;;;;;;;;;;;;29.73;60.13;101144.66;5081270;27;70836;-39
2023/02/20 04:10:33;;;;;;;;;;;;;;;29.77;60.03;101143.19;5063383;27;65942;-40
2023/02/20 04:13:04;;;;;;;;;;;;;;;29.80;59.44;101135.50;5081487;27;70447;-39
2023/02/20 04:15:35;;;;;;;;;;;;;;;29.81;59.58;101125.50;5093072;27;66996;-39
2023/02/20 04:18:08;;;;;;;;;;;;;;;29.84;59.39;101120.53;5075270;27;69795;-39
2023/02/20 04:20:40;;;;;;;;;;;;;;;29.88;58.94;101125.53;5079611;27;65602;-41
2023/02/20 04:23:24;;;;;;;;;;;;;;;29.91;58.98;101117.81;5084660;27;70205;-41
2023/02/20 04:25:54;;;;;;;;;;;;;;;29.93;58.79;101120.34;5090111;27;66881;-40
2023/02/20 04:28:25;;;;;;;;;;;;;;;29.96;59.09;101111.81;5074091;27;70723;-40
2023/02/20 04:31:02;;;;;;;;;;;;;;;29.99;58.88;101101.38;5076253;27;66032;-40
2023/02/20 04:33:34;;;;;;;;;;;;;;;30.02;58.84;101100.13;5086089;27;69446;-39
2023/02/20 04:36:11;;;;;;;;;;;;;;;30.05;58.90;101099.72;5070298;27;65767;-40
2023/02/20 04:38:41;;;;;;;;;;;;;;;30.09;58.20;101090.16;5079321;27;69289;-40
2023/02/20 04:41:15;;;;;;;;;;;;;;;30.12;58.55;101075.38;5073958;27;66115;-40
2023/02/20 04:43:46;;;;;;;;;;;;;;;30.15;58.33;101075.78;5079037;27;69746;-41
2023/02/20 04:46:17;;;;;;;;;;;;;;;30.17;58.01;101071.00;5077103;27;66111;-41
2023/02/20 04:48:47;;;;;;;;;;;;;;;30.20;58.06;101070.56;5090700;27;70153;-39
2023/02/20 04:51:17;;;;;;;;;;;;;;;30.24;57.80;101076.41;5088073;27;66843;-42
2023/02/20 04:53:48;;;;;;;;;;;;;;;30.25;57.87;101062.66;5078112;27;70264;-39
2023/02/20 04:56:19;;;;;;;;;;;;;;;30.30;58.04;101063.91;5092638;27;66083;-42
2023/02/20 04:58:50;;;;;;;;;;;;;;;30.33;57.46;101060.78;5079022;27;69854;-39
2023/02/20 05:01:23;;;;;;;;;;;;;;;30.35;57.84;101056.00;5071518;27;67101;-40
2023/02/20 05:03:53;;;;;;;;;;;;;;;30.36;57.79;101046.81;5088563;27;69939;-39
2023/02/20 05:06:23;;;;;;;;;;;;;;;30.41;57.42;101044.31;5097583;27;65866;-40
2023/02/20 05:08:53;;;;;;;;;;;;;;;30.43;57.56;101042.22;5092157;27;70202;-41
2023/02/20 05:11:23;;;;;;;;;;;;;;;30.45;57.02;101037.41;5099505;27;66720;-40
2023/02/20 05:13:54;;;;;;;;;;;;;;;30.46;57.56;101030.97;5098372;27;70357;-40
2023/02/20 05:16:25;;;;;;;;;;;;;;;30.27;56.92;100995.63;5077965;27;67328;-39
2023/02/20 05:18:55;;;;;;;;;;;;;;;30.48;57.33;101016.19;5099369;27;70226;-40
2023/02/20 05:24:15;;;;;;;;;;;;;;;30.53;57.29;101015.53;5093991;27;69628;-39
2023/02/20 05:26:45;;;;;;;;;;;;;;;30.54;56.85;101017.19;5100258;27;66126;-38
2023/02/20 05:29:15;;;;;;;;;;;;;;;30.56;57.04;101004.25;5096315;27;70605;-39
2023/02/20 05:31:45;;;;;;;;;;;;;;;30.58;56.52;100998.63;5089344;27;66702;-40
2023/02/20 05:34:16;;;;;;;;;;;;;;;30.58;56.90;100996.75;5095959;27;70663;-39
2023/02/20 05:36:46;;;;;;;;;;;;;;;30.60;56.96;100994.69;5089463;27;66734;-40
2023/02/20 05:39:16;;;;;;;;;;;;;;;30.62;57.05;100986.31;5100906;27;69419;-40
2023/02/20 05:41:48;;;;;;;;;;;;;;;30.64;57.05;100974.22;5095386;27;65937;-39
2023/02/20 05:44:18;;;;;;;;;;;;;;;30.65;56.61;100981.31;5097742;27;69479;-41
2023/02/20 05:46:48;;;;;;;;;;;;;;;30.50;56.28;100937.44;5095591;27;66973;-41
2023/02/20 05:49:18;;;;;;;;;;;;;;;30.69;56.26;100962.75;5097624;27;69262;-39
2023/02/20 05:51:49;;;;;;;;;;;;;;;30.70;56.21;100957.13;5095716;27;66021;-40
2023/02/20 05:54:19;;;;;;;;;;;;;;;30.73;56.37;100955.88;5092512;27;70349;-41
2023/02/20 05:56:49;;;;;;;;;;;;;;;30.76;56.60;100949.16;5100176;27;65900;-40
2023/02/20 05:59:20;;;;;;;;;;;;;;;30.77;56.03;100940.84;5098328;27;69770;-39
2023/02/20 06:01:55;;;;;;;;;;;;;;;30.81;56.44;100933.13;5100354;27;67187;-39
2023/02/20 06:04:25;;;;;;;;;;;;;;;30.82;55.89;100929.41;5097862;27;70567;-40
2023/02/20 06:06:56;;;;;;;;;;;;;;;30.84;56.00;100924.56;5094997;27;68032;-41
2023/02/20 06:09:26;;;;;;;;;;;;;;;30.86;56.06;100911.66;5077198;27;69985;-40
2023/02/20 06:11:57;;;;;;;;;;;;;;;30.89;55.66;100913.91;5097463;27;66415;-40
2023/02/20 06:14:27;;;;;;;;;;;;;;;30.91;55.67;100909.13;5058201;27;69651;-41
2023/02/20 06:16:57;;;;;;;;;;;;;;;30.93;55.90;100901.59;5098674;27;65552;-39
2023/02/20 06:19:27;;;;;;;;;;;;;;;30.95;55.50;100902.19;5090063;27;69501;-40
2023/02/20 06:21:58;;;;;;;;;;;;;;;30.99;55.71;100895.28;5088566;27;66790;-40
2023/02/20 06:24:28;;;;;;;;;;;;;;;31.02;55.85;100894.03;5077596;27;69186;-40
2023/02/20 06:27:00;;;;;;;;;;;;;;;31.04;55.44;100883.81;5090623;27;65554;-40
2023/02/20 06:29:30;;;;;;;;;;;;;;;31.05;55.43;100888.97;5093406;27;68753;-40
2023/02/20 06:32:00;;;;;;;;;;;;;;;31.08;55.60;100877.72;5099349;27;66943;-42
2023/02/20 06:34:32;;;;;;;;;;;;;;;31.09;55.67;100865.84;5097444;27;68956;-40
2023/02/20 06:37:02;;;;;;;;;;;;;;;31.12;55.06;100862.69;5090933;27;64845;-43
2023/02/20 06:39:32;;;;;;;;;;;;;;;31.14;55.14;100857.84;5079201;27;69731;-40
2023/02/20 06:42:03;;;;;;;;;;;;;;;31.19;54.81;100861.78;5084183;27;65601;-39
2023/02/20 06:44:33;;;;;;;;;;;;;;;31.20;54.74;100855.28;5095424;27;69653;-41
2023/02/20 06:47:07;;;;;;;;;;;;;;;31.22;54.83;100853.19;5072514;27;66049;-41
2023/02/20 06:49:38;;;;;;;;;;;;;;;31.25;54.85;100836.50;5096233;27;70226;-43
2023/02/20 06:52:09;;;;;;;;;;;;;;;31.26;54.68;100840.84;5100501;27;66581;-41
2023/02/20 06:54:39;;;;;;;;;;;;;;;31.30;54.67;100840.19;5092098;27;70151;-40
2023/02/20 06:57:09;;;;;;;;;;;;;;;31.32;54.26;100827.25;5091183;27;65989;-45
2023/02/20 06:59:41;;;;;;;;;;;;;;;31.36;54.32;100824.94;5091400;27;70153;-40
2023/02/20 07:02:12;;;;;;;;;;;;;;;31.39;54.05;100830.72;5079349;27;66423;-40
2023/02/20 07:04:46;;;;;;;;;;;;;;;31.42;54.38;100820.50;5062133;27;70212;-41
2023/02/20 07:07:17;;;;;;;;;;;;;;;31.44;54.06;100818.41;5075567;27;65875;-42
2023/02/20 07:09:47;;;;;;;;;;;;;;;31.47;53.99;100817.94;5075447;27;70175;-43
2023/02/20 07:12:17;;;;;;;;;;;;;;;31.48;54.05;100820.44;5091645;27;66337;-40
2023/02/20 07:14:49;;;;;;;;;;;;;;;31.51;54.01;100814.56;5098406;27;69810;-39
2023/02/20 07:17:19;;;;;;;;;;;;;;;31.54;53.40;100810.56;5080315;27;67143;-40
2023/02/20 07:19:50;;;;;;;;;;;;;;;31.57;53.79;100794.69;5081465;27;70325;-41
2023/02/20 07:22:21;;;;;;;;;;;;;;;31.60;53.58;100793.41;5099482;27;67137;-40
2023/02/20 07:24:52;;;;;;;;;;;;;;;31.64;53.75;100782.91;5099696;27;70387;-42
2023/02/20 07:27:22;;;;;;;;;;;;;;;31.68;53.40;100789.53;5098162;27;67135;-42
2023/02/20 07:29:52;;;;;;;;;;;;;;;31.72;53.35;100785.31;5100082;27;70115;-39
2023/02/20 07:32:22;;;;;;;;;;;;;;;31.75;53.13;100779.44;5093690;27;66905;-42
2023/02/20 07:34:53;;;;;;;;;;;;;;;31.79;53.16;100783.34;5094319;27;70193;-41
2023/02/20 07:37:34;;;;;;;;;;;;;;;31.84;53.07;100780.75;5067226;27;66823;-39
2023/02/20 07:40:04;;;;;;;;;;;;;;;31.86;53.11;100773.22;5091571;27;70521;-40
2023/02/20 07:42:35;;;;;;;;;;;;;;;31.89;53.10;100767.34;5095572;27;66902;-41
2023/02/20 07:45:17;;;;;;;;;;;;;;;31.94;52.84;100772.13;5086894;27;69654;-39
2023/02/20 07:47:47;;;;;;;;;;;;;;;31.97;52.71;100767.06;5090558;27;66881;-39
2023/02/20 07:50:17;;;;;;;;;;;;;;;32.00;52.44;100766.59;5092792;27;69835;-42
2023/02/20 07:52:47;;;;;;;;;;;;;;;32.03;52.41;100766.13;5095471;27;67117;-41
2023/02/20 07:55:17;;;;;;;;;;;;;;;32.08;52.44;100756.47;5090659;27;69953;-46
2023/02/20 07:57:50;;;;;;;;;;;;;;;32.12;52.38;100754.94;5090819;27;66591;-40
2023/02/20 08:00:22;;;;;;;;;;;;;;;32.16;52.18;100753.44;5071329;28;70055;-39
2023/02/20 08:02:53;;;;;;;;;;;;;;;32.20;52.24;100746.47;5090493;27;66118;-40
2023/02/20 08:05:23;;;;;;;;;;;;;;;32.24;52.22;100750.38;5090444;27;70338;-39
2023/02/20 08:07:53;;;;;;;;;;;;;;;32.28;52.29;100751.56;5091961;27;66129;-39
2023/02/20 08:10:25;;;;;;;;;;;;;;;32.31;51.94;100751.09;5077291;27;70753;-40
2023/02/20 08:12:55;;;;;;;;;;;;;;;32.35;51.76;100738.72;5084989;27;66488;-41
2023/02/20 08:15:25;;;;;;;;;;;;;;;32.37;51.76;100736.56;5088671;27;70795;-40
2023/02/20 08:17:56;;;;;;;;;;;;;;;32.44;51.83;100739.19;5091049;27;66553;-39
2023/02/20 08:20:26;;;;;;;;;;;;;;;32.46;51.71;100727.06;5084532;27;69497;-40
2023/02/20 08:22:59;;;;;;;;;;;;;;;32.16;51.51;100666.59;5091290;27;65315;-40
2023/02/20 08:25:29;;;;;;;;;;;;;;;32.56;51.52;100731.09;5096013;27;69194;-41
2023/02/20 08:28:00;;;;;;;;;;;;;;;32.61;51.58;100723.06;5094319;27;66339;-41
2023/02/20 08:30:30;;;;;;;;;;;;;;;32.65;51.32;100730.53;5098298;27;69816;-40
2023/02/20 08:33:05;;;;;;;;;;;;;;;32.69;51.23;100720.00;5063397;27;65275;-41
2023/02/20 08:35:35;;;;;;;;;;;;;;;32.73;51.22;100721.16;5092185;27;69863;-40
2023/02/20 08:38:07;;;;;;;;;;;;;;;32.78;50.95;100721.28;5097480;27;66717;-45
2023/02/20 08:40:37;;;;;;;;;;;;;;;32.82;50.93;100722.47;5071781;27;68527;-39
2023/02/20 08:43:07;;;;;;;;;;;;;;;32.87;50.82;100716.31;5086573;27;66366;-40
2023/02/20 08:45:37;;;;;;;;;;;;;;;32.90;50.71;100716.69;5093083;27;69422;-40
2023/02/20 08:48:07;;;;;;;;;;;;;;;32.94;50.67;100715.13;5100379;27;65896;-41
2023/02/20 08:50:37;;;;;;;;;;;;;;;32.98;50.43;100711.94;5097498;27;69748;-43
2023/02/20 08:53:07;;;;;;;;;;;;;;;33.02;50.52;100713.16;5094476;27;66003;-41
2023/02/20 08:55:37;;;;;;;;;;;;;;;33.07;50.65;100713.25;5097111;27;70505;-39
2023/02/20 08:58:07;;;;;;;;;;;;;;;33.11;50.41;100711.72;5095061;27;66448;-49
2023/02/20 09:00:38;;;;;;;;;;;;;;;33.15;49.79;100712.88;5093439;27;70277;-41
2023/02/20 09:03:08;;;;;;;;;;;;;;;33.20;50.29;100707.53;5096667;27;66467;-43
2023/02/20 09:05:38;;;;;;;;;;;;;;;33.22;49.94;100708.13;5098767;27;69630;-40
2023/02/20 09:08:08;;;;;;;;;;;;;;;33.28;49.92;100706.34;5100510;27;66307;-39
2023/02/20 09:10:39;;;;;;;;;;;;;;;33.32;49.73;100707.50;5096428;27;70134;-40
2023/02/20 09:13:09;;;;;;;;;;;;;;;33.34;49.70;100706.19;5097923;27;66122;-41
2023/02/20 09:15:40;;;;;;;;;;;;;;;33.38;49.54;100703.84;5095431;27;69832;-40
2023/02/20 09:18:11;;;;;;;;;;;;;;;33.41;49.63;100711.50;5074255;27;66253;-39
2023/02/20 09:20:42;;;;;;;;;;;;;;;33.44;49.55;100710.22;5098987;27;70269;-39
2023/02/20 09:23:13;;;;;;;;;;;;;;;33.49;49.32;100707.56;5096661;27;66601;-41
2023/02/20 09:25:43;;;;;;;;;;;;;;;33.54;49.20;100707.69;5097927;27;70214;-40
2023/02/20 09:28:13;;;;;;;;;;;;;;;33.56;49.12;100724.59;5079727;27;66603;-40
2023/02/20 09:30:44;;;;;;;;;;;;;;;33.58;49.11;100711.59;5083077;27;69010;-40
2023/02/20 09:33:14;;;;;;;;;;;;;;;33.61;48.99;100716.56;5080587;27;66004;-40
2023/02/20 09:35:44;;;;;;;;;;;;;;;33.62;48.69;100718.19;5095606;27;70316;-40
2023/02/20 09:38:15;;;;;;;;;;;;;;;33.63;48.89;100714.41;5094738;27;65638;-42
2023/02/20 09:40:47;;;;;;;;;;;;;;;33.65;48.51;100712.25;5081319;27;69975;-40
2023/02/20 09:43:34;;;;;;;;;;;;;;;33.67;48.61;100721.00;5095110;27;67192;-42
2023/02/20 09:46:13;;;;;;;;;;;;;;;33.67;48.62;100721.00;5094876;27;69922;-41
2023/02/20 09:48:50;;;;;;;;;;;;;;;33.68;48.45;100717.22;5095207;27;66563;-39
2023/02/20 09:51:24;;;;;;;;;;;;;;;33.71;48.29;100715.91;5099547;27;70282;-41
2023/02/20 09:53:54;;;;;;;;;;;;;;;33.71;48.47;100727.63;5097126;27;65880;-41
2023/02/20 09:56:27;;;;;;;;;;;;;;;33.72;48.61;100729.28;5092829;27;70725;-40
2023/02/20 09:58:59;;;;;;;;;;;;;;;33.73;48.16;100736.34;5093270;27;66650;-39
2023/02/20 10:01:30;;;;;;;;;;;;;;;33.74;48.35;100739.91;5097563;27;69812;-40
2023/02/20 10:04:02;;;;;;;;;;;;;;;33.75;48.29;100736.94;5096198;27;67860;-41
2023/02/20 10:06:33;;;;;;;;;;;;;;;33.77;48.30;100732.09;5090195;27;70129;-40
2023/02/20 10:09:10;;;;;;;;;;;;;;;33.76;48.27;100735.88;5092828;27;65604;-41
2023/02/20 10:11:59;;;;;;;;;;;;;;;33.79;48.42;100749.00;5090121;27;69209;-40
2023/02/20 10:14:43;;;;;;;;;;;;;;;33.77;48.14;100753.84;5096896;27;65754;-41
2023/02/20 10:17:31;;;;;;;;;;;;;;;33.32;49.65;100754.56;5099813;27;70062;-40
2023/02/20 10:20:12;;;;;;;;;;;;;;;33.06;49.43;100755.91;5080181;27;66575;-42
2023/02/20 10:22:48;;;;;;;;;;;;;;;32.90;49.82;100753.88;5098694;27;69625;-41
2023/02/20 10:25:21;;;;;;;;;;;;;;;32.82;50.21;100757.78;5091055;27;65592;-41
2023/02/20 10:27:59;;;;;;;;;;;;;;;32.75;50.40;100754.34;5095236;27;70371;-40
2023/02/20 10:30:32;;;;;;;;;;;;;;;32.66;50.59;100763.94;5100187;27;66388;-41
2023/02/20 10:33:09;;;;;;;;;;;;;;;32.64;51.36;100766.03;5092786;27;69777;-41
2023/02/20 10:35:43;;;;;;;;;;;;;;;32.60;53.10;100781.16;5099477;27;66600;-41
2023/02/20 10:38:16;;;;;;;;;;;;;;;32.56;53.46;100779.97;5073592;27;68806;-45
2023/02/20 10:41:03;;;;;;;;;;;;;;;32.52;53.96;100795.09;5075139;27;66405;-41
2023/02/20 10:43:41;;;;;;;;;;;;;;;32.48;54.11;100803.69;5094580;27;69714;-41
2023/02/20 10:46:26;;;;;;;;;;;;;;;32.42;54.49;100801.03;5091268;27;66193;-42
2023/02/20 10:49:18;;;;;;;;;;;;;;;32.40;54.85;100809.44;5092933;27;69227;-41
2023/02/20 10:51:50;;;;;;;;;;;;;;;32.35;55.51;100806.59;5092704;27;66101;-43
2023/02/20 10:54:24;;;;;;;;;;;;;;;32.37;56.12;100814.47;5092294;27;70530;-41
2023/02/20 10:57:18;;;;;;;;;;;;;;;32.56;55.77;100812.56;5068177;27;66658;-42
2023/02/20 10:59:59;;;;;;;;;;;;;;;32.78;55.24;100823.69;5083985;27;69325;-43
2023/02/20 11:02:33;;;;;;;;;;;;;;;32.90;55.13;100821.78;5077599;27;65922;-43
2023/02/20 11:05:07;;;;;;;;;;;;;;;32.98;54.88;100831.50;5092447;27;68833;-43
2023/02/20 11:07:37;;;;;;;;;;;;;;;33.05;54.75;100838.50;5087808;27;66315;-42
2023/02/20 11:10:08;;;;;;;;;;;;;;;33.09;54.53;100833.41;5088636;27;70420;-42
2023/02/20 11:12:49;;;;;;;;;;;;;;;33.11;54.27;100842.16;5093814;27;63719;-41
2023/02/20 11:15:22;;;;;;;;;;;;;;;33.14;54.33;100847.13;5099233;27;70337;-42
2023/02/20 11:17:53;;;;;;;;;;;;;;;33.14;54.37;100847.13;5087531;27;66042;-40
2023/02/20 11:20:34;;;;;;;;;;;;;;;33.14;54.67;100860.72;5092943;27;70044;-41
2023/02/20 11:23:04;;;;;;;;;;;;;;;33.13;54.43;100861.78;5091594;27;66120;-43
2023/02/20 11:25:35;;;;;;;;;;;;;;;33.12;54.86;100873.72;5097719;27;69756;-43
2023/02/20 11:28:23;;;;;;;;;;;;;;;33.12;54.71;100881.84;5091409;27;65796;-42
2023/02/20 11:31:02;;;;;;;;;;;;;;;33.11;54.71;100891.09;5092099;27;69329;-41
2023/02/20 11:33:46;;;;;;;;;;;;;;;33.08;54.60;100883.41;5098022;27;65541;-43
2023/02/20 11:36:20;;;;;;;;;;;;;;;33.06;54.66;100888.25;5094394;27;70029;-42
2023/02/20 11:38:56;;;;;;;;;;;;;;;33.06;54.88;100893.69;5088439;27;66860;-42
2023/02/20 11:41:38;;;;;;;;;;;;;;;33.03;54.75;100899.59;5067131;27;69733;-43
2023/02/20 11:44:14;;;;;;;;;;;;;;;33.01;54.76;100909.84;5080625;27;66228;-44
2023/02/20 11:46:46;;;;;;;;;;;;;;;33.00;54.92;100916.38;5090063;27;69425;-43
2023/02/20 11:49:26;;;;;;;;;;;;;;;32.94;54.79;100921.63;5090008;27;65144;-42
2023/02/20 11:52:29;;;;;;;;;;;;;;;32.93;54.92;100932.72;5077878;27;70203;-41
2023/02/20 11:55:19;;;;;;;;;;;;;;;32.92;54.92;100928.34;5043215;28;65814;-41
2023/02/20 11:57:50;;;;;;;;;;;;;;;32.88;55.00;100938.88;5062937;28;69156;-41
2023/02/20 12:00:22;;;;;;;;;;;;;;;32.87;55.08;100939.09;5067487;27;66683;-42
2023/02/20 12:03:03;;;;;;;;;;;;;;;32.84;54.97;100943.09;5071530;28;69728;-43
2023/02/20 12:05:37;;;;;;;;;;;;;;;32.81;55.10;100946.28;5069165;28;67278;-42
2023/02/20 12:08:27;;;;;;;;;;;;;;;32.80;55.03;100952.78;5055633;28;69764;-42
2023/02/20 12:11:00;;;;;;;;;;;;;;;32.76;55.18;100953.47;5077436;27;66439;-43
2023/02/20 12:13:33;;;;;;;;;;;;;;;32.74;55.22;100953.72;5067805;27;68574;-42
2023/02/20 12:16:12;;;;;;;;;;;;;;;32.70;55.49;100961.47;5072415;27;66574;-42
2023/02/20 12:19:01;;;;;;;;;;;;;;;32.67;55.47;100955.69;5071189;27;70234;-41
2023/02/20 12:21:50;;;;;;;;;;;;;;;32.65;55.56;100953.22;5072609;27;67177;-41
2023/02/20 12:24:20;;;;;;;;;;;;;;;32.61;55.59;100960.16;5077697;27;69826;-41
2023/02/20 12:26:52;;;;;;;;;;;;;;;32.59;55.50;100964.16;5070929;28;65944;-42
2023/02/20 12:29:45;;;;;;;;;;;;;;;32.57;55.36;100969.00;5073739;27;68537;-43
2023/02/20 12:32:29;;;;;;;;;;;;;;;32.52;55.57;100974.31;5090333;27;67124;-42
2023/02/20 12:34:59;;;;;;;;;;;;;;;32.48;56.08;100974.75;5069404;27;70109;-45
2023/02/20 12:37:30;;;;;;;;;;;;;;;32.45;56.19;100980.59;5069253;28;65875;-45
2023/02/20 12:40:09;;;;;;;;;;;;;;;32.26;57.48;100978.97;5068299;27;69736;-47
2023/02/20 12:42:46;;;;;;;;;;;;;;;32.11;58.16;100989.38;5088004;27;65633;-46
2023/02/20 12:45:20;;;;;;;;;;;;;;;31.97;58.98;100989.53;5071639;27;70507;-47
2023/02/20 12:48:00;;;;;;;;;;;;;;;31.91;59.18;100995.84;5068952;27;66693;-46
2023/02/20 12:50:48;;;;;;;;;;;;;;;31.85;59.62;100996.72;5072555;27;70207;-47
2023/02/20 12:53:18;;;;;;;;;;;;;;;31.79;59.71;101000.34;5077332;27;66560;-47
2023/02/20 12:56:07;;;;;;;;;;;;;;;31.77;59.71;100999.72;5094830;27;70062;-44
2023/02/20 12:58:56;;;;;;;;;;;;;;;31.73;60.80;101001.22;5087351;27;66944;-44
2023/02/20 13:01:26;;;;;;;;;;;;;;;31.74;60.49;100994.75;5093693;27;70741;-46
2023/02/20 13:04:21;;;;;;;;;;;;;;;31.71;60.90;101000.63;5084005;27;66903;-45
2023/02/20 13:06:56;;;;;;;;;;;;;;;31.69;61.28;101008.16;5089396;27;70188;-45
2023/02/20 13:09:32;;;;;;;;;;;;;;;31.66;61.29;101003.19;5093467;27;66080;-44
2023/02/20 13:12:06;;;;;;;;;;;;;;;31.66;61.35;101003.19;5094331;27;69011;-45
2023/02/20 13:14:45;;;;;;;;;;;;;;;31.63;61.53;101003.63;5093588;27;67271;-43
2023/02/20 13:17:30;;;;;;;;;;;;;;;31.61;61.50;101007.38;5093025;27;70378;-43
2023/02/20 13:20:23;;;;;;;;;;;;;;;31.58;61.88;101007.81;5098221;27;66607;-43
2023/02/20 13:22:59;;;;;;;;;;;;;;;31.59;62.61;101014.06;5089628;27;69126;-42
2023/02/20 13:25:32;;;;;;;;;;;;;;;31.61;63.30;101014.69;5082095;27;66114;-43
2023/02/20 13:28:11;;;;;;;;;;;;;;;31.61;63.92;101018.22;5092482;27;70511;-44
2023/02/20 13:30:42;;;;;;;;;;;;;;;31.58;63.05;101023.25;5092985;27;66817;-44